Flight Track Log - Related Links

Times and Time Zones

All times are in EDT time to prevent confusion due to time zone crossing. See the ASH3770 flight status page for this flight to view local times or setup timezone preferences in your user account.

Time Position Orientation Groundspeed Altitude Reporting Facility
EDT Latitude Longitude Course Direction KTS MPH feet Rate Location/Type
Sun 10:26:30 PM 42.0167 -87.9333 56° Northeast 170 196 2,300  Level Chicago TRACON
Sun 10:27:30 PM 42.0500 -87.8667 56° Northeast 209 241 4,800 1,350 Climbing Chicago TRACON
Sun 10:28:30 PM 42.0667 -87.7833 75° East 259 298 5,000 1,032 Climbing Chicago TRACON
Sun 10:30:07 PM 42.0833 -87.6514 80° East 255 293 7,500 2,089 Climbing Chicago Center
Sun 10:31:08 PM 42.0886 -87.5508 86° East 268 308 10,500 2,557 Climbing Chicago Center
Sun 10:32:09 PM 42.0939 -87.4453 86° East 280 322 12,700 2,459 Climbing Chicago Center
Sun 10:33:10 PM 42.1014 -87.3011 86° East 318 366 15,500 2,439 Climbing Chicago Center
Sun 10:34:12 PM 42.1067 -87.1761 87° East 332 382 17,700 1,951 Climbing Chicago Center
Sun 10:35:13 PM 42.1128 -87.0481 86° East 341 392 19,500 1,869 Climbing Chicago Center
Sun 10:36:14 PM 42.1181 -86.9117 87° East 362 417 21,500 1,918 Climbing Chicago Center
Sun 10:37:15 PM 42.1225 -86.7736 87° East 368 423 23,400 1,721 Climbing Chicago Center
Sun 10:38:16 PM 42.1269 -86.6414 87° East 375 432 25,000 1,475 Climbing Chicago Center
Sun 10:39:17 PM 42.1325 -86.4972 87° East 384 442 26,400 1,328 Climbing Chicago Center
Sun 10:40:18 PM 42.1369 -86.3508 88° East 390 449 27,700 1,317 Climbing Chicago Center
Sun 10:41:20 PM 42.1419 -86.1697 88° East 401 461 29,100 1,220 Climbing Chicago Center
Sun 10:42:21 PM 42.1439 -86.0153 89° East 410 472 30,200 984 Climbing Chicago Center
Sun 10:43:22 PM 42.1417 -85.8736 91° East 413 475 31,100 984 Climbing Chicago Center
Sun 10:44:23 PM 42.1411 -85.7183 90° East 417 480 32,200 1,082 Climbing Chicago Center
Sun 10:45:24 PM 42.1389 -85.5617 91° East 420 483 33,300 1,073 Climbing Chicago Center
Sun 10:46:26 PM 42.1372 -85.4072 91° East 416 479 34,400 1,056 Climbing Chicago Center
Sun 10:47:12 PM 42.1397 -85.2603 89° East 420 483 35,200 962 Climbing Cleveland Center
Sun 10:48:12 PM 42.1358 -85.1003 92° East 415 478 36,100 900 Climbing Cleveland Center
Sun 10:49:12 PM 42.1356 -84.9461 90° East 415 478 37,000 450 Climbing Cleveland Center
Sun 10:50:12 PM 42.1289 -84.7861 93° East 420 483 37,000  Level Cleveland Center
Sun 10:51:12 PM 42.1292 -84.6628 90° East 425 489 37,000  Level Cleveland Center
Sun 10:52:12 PM 42.1361 -84.4672 87° East 425 489 37,000  Level Cleveland Center
Sun 10:53:12 PM 42.1394 -84.2994 88° East 437 503 37,000  Level Cleveland Center
Sun 10:54:12 PM 42.1397 -84.1594 90° East 437 503 37,000  Level Cleveland Center
Sun 10:55:12 PM 42.1467 -83.9972 87° East 432 497 37,000  Level Cleveland Center
Sun 10:56:12 PM 42.1492 -83.8406 89° East 427 491 37,000  Level Cleveland Center
Sun 10:57:12 PM 42.1517 -83.6808 89° East 427 491 37,000  Level Cleveland Center
Sun 10:58:12 PM 42.1581 -83.5158 87° East 421 484 37,000  Level Cleveland Center
Sun 10:59:12 PM 42.1619 -83.3536 88° East 421 484 37,000  Level Cleveland Center
Sun 11:00:12 PM 42.1661 -83.1744 88° East 421 484 37,000  Level Cleveland Center
Sun 11:01:12 PM 42.1697 -83.0094 88° East 427 491 37,000  Level Cleveland Center
Sun 11:02:12 PM 42.1711 -82.8469 89° East 432 497 37,000  Level Cleveland Center
Sun 11:03:12 PM 42.1783 -82.6789 87° East 437 503 37,000  Level Cleveland Center
Sun 11:04:12 PM 42.1792 -82.5108 90° East 442 509 37,000  Level Cleveland Center
Sun 11:05:12 PM 42.1819 -82.3486 89° East 442 509 37,000  Level Cleveland Center
Sun 11:06:12 PM 42.1844 -82.1803 89° East 442 509 37,000  Level Cleveland Center
Sun 11:07:12 PM 42.1908 -82.0181 87° East 435 501 37,000  Level Cleveland Center
Sun 11:08:12 PM 42.1928 -81.8472 89° East 443 510 37,000  Level Cleveland Center
Sun 11:09:12 PM 42.1942 -81.6958 89° East 443 510 37,000  Level Cleveland Center
Sun 11:10:12 PM 42.1958 -81.5278 89° East 443 510 37,000  Level Cleveland Center
Sun 11:11:12 PM 42.1969 -81.3594 89° East 438 504 37,000  Level Cleveland Center
Sun 11:12:12 PM 42.1981 -81.1914 89° East 438 504 37,000  Level Cleveland Center
Sun 11:13:12 PM 42.1989 -81.0175 90° East 448 516 37,000  Level Cleveland Center
Sun 11:14:12 PM 42.1994 -80.8297 90° East 448 516 37,000  Level Cleveland Center
Sun 11:15:12 PM 42.1997 -80.6617 90° East 454 522 37,000  Level Cleveland Center
Sun 11:16:12 PM 42.2017 -80.4906 89° East 454 522 37,000  Level Cleveland Center
Sun 11:17:12 PM 42.2014 -80.3197 90° East 454 522 37,000  Level Cleveland Center
Sun 11:18:12 PM 42.2008 -80.1486 90° East 454 522 37,000  Level Cleveland Center
Sun 11:19:12 PM 42.2003 -79.9975 90° East 449 517 37,000  Level Cleveland Center
Sun 11:20:12 PM 42.2014 -79.8292 89° East 449 517 37,000  Level Cleveland Center
Sun 11:21:12 PM 42.1981 -79.6639 92° East 449 517 37,000  Level Cleveland Center
Sun 11:22:12 PM 42.2008 -79.4872 89° East 449 517 37,000  Level Cleveland Center
Sun 11:23:12 PM 42.1969 -79.3219 92° East 449 517 37,000  Level Cleveland Center
Sun 11:24:12 PM 42.1950 -79.1511 91° East 449 517 37,000  Level Cleveland Center
Sun 11:25:12 PM 42.1928 -78.9831 91° East 449 517 37,000  Level Cleveland Center
Sun 11:26:12 PM 42.1903 -78.8147 91° East 449 517 37,000  Level Cleveland Center
Sun 11:27:12 PM 42.1875 -78.6467 91° East 449 517 37,000  Level Cleveland Center
Sun 11:28:12 PM 42.1867 -78.4814 90° East 438 504 37,000  Level Cleveland Center
Sun 11:30:32 PM 42.1772 -78.0858 92° East 445 512 37,000  Level New York Center
Sun 11:31:30 PM 42.1728 -77.9175 92° East 445 512 37,000  Level New York Center
Sun 11:32:29 PM 42.1681 -77.7517 92° East 445 512 37,000  Level New York Center
Sun 11:33:29 PM 42.1653 -77.5836 91° East 445 512 37,000  Level New York Center
Sun 11:34:29 PM 42.1603 -77.4181 92° East 445 512 37,000  Level New York Center
Sun 11:35:30 PM 42.1569 -77.2469 91° East 445 512 37,000  Level New York Center
Sun 11:36:31 PM 42.1517 -77.0786 92° East 445 512 37,000  Level New York Center
Sun 11:37:30 PM 42.1458 -76.9103 93° East 445 512 37,000 -699 Level New York Center
Sun 11:39:14 PM 42.1381 -76.6125 92° East 468 539 35,100 -1,463 Descending Boston Center
Sun 11:40:14 PM 42.1372 -76.4611 90° East 462 532 33,000 -2,150 Descending Boston Center
Sun 11:41:14 PM 42.1306 -76.2953 93° East 451 519 30,800 -2,200 Descending Boston Center
Sun 11:42:14 PM 42.1236 -76.1269 93° East 451 519 28,600 -2,200 Descending Boston Center
Sun 11:43:14 PM 42.1167 -75.9558 93° East 451 519 26,400 -1,800 Descending Boston Center
Sun 11:44:14 PM 42.1094 -75.7761 93° East 445 512 25,000 -700 Descending Boston Center
Sun 11:45:14 PM 42.1039 -75.6136 93° East 440 506 25,000  Level Boston Center
Sun 11:46:14 PM 42.0956 -75.4564 94° East 428 493 25,000  Level Boston Center
Sun 11:47:14 PM 42.0892 -75.3022 93° East 418 481 25,000  Level Boston Center
Sun 11:48:14 PM 42.0825 -75.1508 93° East 418 481 25,000 -200 Level Boston Center
Sun 11:49:14 PM 42.0733 -75.0022 95° East 406 467 24,600 -900 Descending Boston Center
Sun 11:50:14 PM 42.0644 -74.8425 94° East 412 474 23,200 -1,450 Descending Boston Center
Sun 11:51:14 PM 42.0572 -74.6856 93° East 418 481 21,700 -1,450 Descending Boston Center
Sun 11:52:14 PM 42.0500 -74.5231 93° East 423 487 20,300 -1,450 Descending Boston Center
Sun 11:53:14 PM 42.0442 -74.3775 93° East 418 481 18,800 -1,400 Descending Boston Center
Sun 11:54:14 PM 42.0342 -74.2289 95° East 396 456 17,500 -1,400 Descending Boston Center
Sun 11:55:14 PM 42.0258 -74.0892 95° East 390 449 16,000 -1,450 Descending Boston Center
Sun 11:56:14 PM 42.0194 -73.9464 93° East 384 442 14,600 -1,550 Descending Boston Center
Sun 11:57:14 PM 42.0108 -73.8092 95° East 384 442 12,900 -1,550 Descending Boston Center
Sun 11:58:14 PM 42.0019 -73.6694 95° East 379 436 11,500 -1,295 Descending Boston Center
Sun 11:58:42 PM 41.9964 -73.6106 97° East 371 427 11,000 -500 Descending Boston Center
Sun 11:59:14 PM 41.9928 -73.5322 94° East 373 429 11,000  Level Boston Center
Sun 11:59:55 PM 41.9853 -73.4400 96° East 368 423 11,000  Level Boston Center
Mon 12:00:14 AM 41.9858 -73.3953 89° East 368 423 11,000  Level Boston Center
Mon 12:00:56 AM 41.9781 -73.3114 97° East 343 395 11,000 -200 Level Boston Center
Mon 12:01:14 AM 41.9783 -73.2722 89° East 353 406 10,800 -1,300 Descending Boston Center
Mon 12:01:56 AM 41.9728 -73.2025 96° East 291 335 9,700 -1,600 Descending Boston Center
Mon 12:02:14 AM 41.9728 -73.1800 90° East 299 344 9,200 -1,869 Descending Boston Center
Mon 12:02:57 AM 41.9650 -73.0989 97° East 279 321 7,800 -1,900 Descending Boston Center
Mon 12:03:14 AM 41.9653 -73.0656 89° East 279 321 7,300 -1,900 Descending Boston Center
Mon 12:03:57 AM 41.9572 -72.9928 98° East 271 312 5,900 -1,800 Descending Boston Center
Mon 12:04:14 AM 41.9594 -72.9706 82° East 265 305 5,500 -885 Descending Boston Center
Mon 12:04:58 AM 41.9533 -72.8978 96° East 255 293 5,000 -500 Descending Boston Center
Mon 12:05:14 AM 41.9536 -72.8783 89° East 260 299 5,000 -393 Level Boston Center
Mon 12:05:59 AM 41.9622 -72.8197 79° East 224 258 4,600 -700 Descending Boston Center
Mon 12:06:14 AM 41.9747 -72.8058 40° Northeast 212 244 4,300 -900 Descending Boston Center
Mon 12:06:59 AM 42.0019 -72.7586 52° Northeast 202 232 3,700 -800 Descending Boston Center
Mon 12:07:14 AM 42.0103 -72.7475 45° Northeast 201 231 3,500 -885 Descending Boston Center
Mon 12:08:00 AM 42.0333 -72.7056 53° Northeast 190 219 2,800 -792 Descending Boston Center
Mon 12:09:00 AM 42.0522 -72.6469 67° East 175 201 2,100 -595 Descending Boston Center
Mon 12:10:01 AM 42.0147 -72.6189 151° Southeast 159 183 1,600 -492 Descending Boston Center
Mon 12:11:02 AM 41.9814 -72.6328 197° South 136 157 1,100 -595 Descending Boston Center
Mon 12:12:02 AM 41.9564 -72.6661 225° Southwest 124 143 400 -364 Descending Boston Center
Mon 12:13:14 AM 41.9228 -72.6828 200° South 120 138 300 -83 Descending Boston Center

Login

Don't have an account? Register now (free) for customized features, flight alerts, and more!